Search for airport 
image banner adimage banner adimage banner ad
image banner ad

49X - Chemehuevi Valley

Located in Chemehuevi Valley, United States

ICAO - 49X, IATA -

Data provided by Airmate  

General information

Coordinates: N34°31'44" W114°25'55"
Elevation is 638 feet MSL.
Magnetic variation is 13° East
View others Airports in California

Operational data

Special qualification required
Current time UTC:
Current local time:
Weather at : KHII - Lake Havasu City ( 8 km )
METAR: KHII 231455Z AUTO 00000KT 10SM CLR 26/03 A2987 RMK AO2
View NOTAMs / SUP AIP / TFR affecting this airport [VIEW]
Communications frequencies: [VIEW]

Runways:

RWY identifierQFULength (ft)Width (ft)SurfaceLDA (ft)
16500075ASPH
34500075ASPH

Airport contact information

Address: Chemehuevi Valley United States

Satellite view of 49X